createdAt,value
2019-04-29T00:00:27.118Z,15.10
2019-04-29T00:02:53.985Z,15.10
2019-04-29T00:05:21.098Z,15.10
2019-04-29T00:07:48.143Z,15.10
2019-04-29T00:10:18.734Z,15.00
2019-04-29T00:12:45.574Z,14.90
2019-04-29T00:15:32.005Z,14.90
2019-04-29T00:18:09.388Z,14.90
2019-04-29T00:20:38.395Z,14.80
2019-04-29T00:23:06.272Z,14.70
2019-04-29T00:25:33.071Z,14.60
2019-04-29T00:27:59.889Z,14.40
2019-04-29T00:30:27.010Z,14.30
2019-04-29T00:32:53.804Z,14.30
2019-04-29T00:35:20.691Z,14.30
2019-04-29T00:37:55.076Z,14.20
2019-04-29T00:40:24.580Z,14.00
2019-04-29T00:43:00.517Z,14.00
2019-04-29T00:45:27.794Z,14.10
2019-04-29T00:47:54.797Z,14.30
2019-04-29T00:50:21.593Z,14.20
2019-04-29T00:52:48.447Z,14.10
2019-04-29T00:55:22.932Z,14.10
2019-04-29T00:57:49.770Z,14.10
2019-04-29T01:00:28.304Z,14.20
2019-04-29T01:02:55.084Z,14.20
2019-04-29T01:05:21.875Z,14.20
2019-04-29T01:07:48.721Z,14.20
2019-04-29T01:10:15.621Z,14.30
2019-04-29T01:12:42.426Z,14.30
2019-04-29T01:15:09.139Z,14.20
2019-04-29T01:17:35.944Z,14.20
2019-04-29T01:20:05.877Z,14.10
2019-04-29T01:22:33.018Z,14.00
2019-04-29T01:24:59.826Z,13.80
2019-04-29T01:27:28.420Z,13.80
2019-04-29T01:29:55.301Z,13.80
2019-04-29T01:32:22.103Z,13.90
2019-04-29T01:34:50.719Z,13.90
2019-04-29T01:37:17.756Z,13.80
2019-04-29T01:40:03.213Z,13.80
2019-04-29T01:42:32.020Z,13.70
2019-04-29T01:44:58.820Z,13.70
2019-04-29T01:47:25.935Z,13.50
2019-04-29T01:49:52.752Z,13.50
2019-04-29T01:52:19.563Z,13.40
2019-04-29T01:54:46.369Z,13.50
2019-04-29T01:57:13.225Z,13.20
2019-04-29T01:59:40.003Z,13.40
2019-04-29T02:02:07.153Z,13.40
2019-04-29T02:04:33.978Z,13.40
2019-04-29T02:07:00.798Z,13.50
2019-04-29T02:09:29.505Z,13.50
2019-04-29T02:11:56.498Z,13.50
2019-04-29T02:14:23.287Z,13.50
2019-04-29T02:16:50.112Z,13.40
2019-04-29T02:19:17.001Z,13.50
2019-04-29T02:21:45.588Z,13.50
2019-04-29T02:24:17.568Z,13.50
2019-04-29T02:26:44.414Z,13.50
2019-04-29T02:29:11.288Z,13.60
2019-04-29T02:31:38.082Z,13.50
2019-04-29T02:34:05.671Z,13.50
2019-04-29T02:36:32.711Z,13.50
2019-04-29T02:39:11.744Z,13.50
2019-04-29T02:41:38.481Z,13.50
2019-04-29T02:44:07.076Z,13.40
2019-04-29T02:46:33.917Z,13.50
2019-04-29T02:49:01.511Z,13.50
2019-04-29T02:51:45.434Z,13.50
2019-04-29T02:54:12.766Z,13.30
2019-04-29T02:56:41.385Z,13.40
2019-04-29T02:59:15.821Z,13.30
2019-04-29T03:01:59.209Z,13.20
2019-04-29T03:04:27.839Z,13.20
2019-04-29T03:06:54.530Z,13.10
2019-04-29T03:09:21.863Z,13.10
2019-04-29T03:11:48.567Z,13.00
2019-04-29T03:14:15.357Z,13.00
2019-04-29T03:16:42.272Z,12.90
2019-04-29T03:19:17.386Z,12.80
2019-04-29T03:21:51.765Z,12.90
2019-04-29T03:24:18.588Z,12.80
2019-04-29T03:26:45.394Z,12.80
2019-04-29T03:29:21.651Z,12.70
2019-04-29T03:31:50.676Z,12.60
2019-04-29T03:34:17.471Z,12.70
2019-04-29T03:36:44.381Z,12.50
2019-04-29T03:39:11.208Z,12.50
2019-04-29T03:41:38.136Z,12.40
2019-04-29T03:44:04.934Z,12.30
2019-04-29T03:46:31.754Z,12.20
2019-04-29T03:48:58.561Z,12.10
2019-04-29T03:51:25.412Z,12.00
2019-04-29T03:53:52.212Z,12.10
2019-04-29T03:56:19.025Z,12.10
2019-04-29T03:58:45.736Z,12.20
2019-04-29T04:01:14.505Z,12.30
2019-04-29T04:03:46.088Z,12.40
2019-04-29T04:06:26.787Z,12.50
2019-04-29T04:09:06.043Z,12.50
2019-04-29T04:11:27.438Z,12.50
2019-04-29T04:13:54.314Z,12.60
2019-04-29T04:16:22.909Z,12.70
2019-04-29T04:18:51.540Z,12.60
2019-04-29T04:21:18.464Z,12.70
2019-04-29T04:23:45.249Z,12.70
2019-04-29T04:26:12.046Z,12.70
2019-04-29T04:28:38.849Z,12.60
2019-04-29T04:31:07.025Z,12.60
2019-04-29T04:33:34.305Z,12.60
2019-04-29T04:36:01.507Z,12.50
2019-04-29T04:38:28.387Z,12.50
2019-04-29T04:40:55.073Z,12.60
2019-04-29T04:43:21.941Z,12.60
2019-04-29T04:45:48.818Z,12.40
2019-04-29T04:48:15.626Z,12.50
2019-04-29T04:50:42.646Z,12.50
2019-04-29T04:53:09.410Z,12.50
2019-04-29T04:55:37.989Z,12.50
2019-04-29T04:58:04.776Z,12.40
2019-04-29T05:00:33.424Z,12.30
2019-04-29T05:03:00.167Z,12.30
2019-04-29T05:05:27.037Z,12.30
2019-04-29T05:07:53.861Z,12.30
2019-04-29T05:10:20.646Z,12.30
2019-04-29T05:12:47.504Z,12.40
2019-04-29T05:15:14.566Z,12.40
2019-04-29T05:17:41.367Z,12.30
2019-04-29T05:20:09.234Z,12.50
2019-04-29T05:22:36.036Z,12.40
2019-04-29T05:25:05.731Z,12.30
2019-04-29T05:27:32.666Z,12.20
2019-04-29T05:29:59.458Z,12.20
2019-04-29T05:32:26.257Z,12.20
2019-04-29T05:34:55.223Z,12.20
2019-04-29T05:37:26.887Z,12.10
2019-04-29T05:39:53.729Z,12.20
2019-04-29T05:42:20.855Z,12.10
2019-04-29T05:44:47.818Z,12.10
2019-04-29T05:47:17.975Z,12.20
2019-04-29T05:49:46.871Z,12.10
2019-04-29T05:52:18.218Z,12.00
2019-04-29T05:54:45.626Z,12.00
2019-04-29T05:57:12.540Z,12.10
2019-04-29T05:59:39.506Z,12.00
2019-04-29T06:02:06.288Z,12.10
2019-04-29T06:04:33.422Z,12.00
2019-04-29T06:07:00.366Z,11.80
2019-04-29T06:09:27.177Z,12.10
2019-04-29T06:11:54.340Z,12.10
2019-04-29T06:14:22.235Z,12.20
2019-04-29T06:16:52.558Z,12.20
2019-04-29T06:19:18.042Z,12.20
2019-04-29T06:21:44.861Z,12.20
2019-04-29T06:24:11.544Z,12.20
2019-04-29T06:26:38.370Z,12.30
2019-04-29T06:29:05.948Z,12.40
2019-04-29T06:31:33.129Z,12.40
2019-04-29T06:34:00.532Z,12.50
2019-04-29T06:36:28.761Z,12.50
2019-04-29T06:38:55.561Z,12.50
2019-04-29T06:41:22.460Z,12.60
2019-04-29T06:43:52.397Z,12.70
2019-04-29T06:46:18.000Z,12.80
2019-04-29T06:48:44.920Z,12.80
2019-04-29T06:51:11.717Z,12.80
2019-04-29T06:53:38.629Z,12.90
2019-04-29T06:56:09.043Z,13.00
2019-04-29T06:58:36.571Z,13.00
2019-04-29T07:01:03.649Z,13.10
2019-04-29T07:03:30.474Z,13.10
2019-04-29T07:05:57.288Z,13.20
2019-04-29T07:08:24.193Z,13.30
2019-04-29T07:10:51.026Z,13.30
2019-04-29T07:13:22.305Z,13.40
2019-04-29T07:15:47.793Z,13.50
2019-04-29T07:18:15.314Z,13.50
2019-04-29T07:20:42.200Z,13.60
2019-04-29T07:23:09.459Z,13.70
2019-04-29T07:25:36.326Z,13.70
2019-04-29T07:28:04.916Z,13.80
2019-04-29T07:30:31.971Z,13.90
2019-04-29T07:32:58.796Z,13.90
2019-04-29T07:35:25.579Z,14.00
2019-04-29T07:37:52.385Z,14.00
2019-04-29T07:40:19.677Z,14.00
2019-04-29T07:42:46.698Z,14.10
2019-04-29T07:45:43.370Z,14.10
2019-04-29T07:48:01.614Z,14.20
2019-04-29T07:50:28.494Z,14.30
2019-04-29T07:52:55.676Z,14.20
2019-04-29T07:55:26.091Z,14.30
2019-04-29T07:57:52.137Z,14.30
2019-04-29T08:00:28.638Z,14.40
2019-04-29T08:02:55.430Z,14.40
2019-04-29T08:05:22.672Z,14.50
2019-04-29T08:07:50.778Z,14.50
2019-04-29T08:10:23.768Z,14.80
2019-04-29T08:12:49.307Z,14.70
2019-04-29T08:15:16.197Z,14.70
2019-04-29T08:17:42.978Z,14.70
2019-04-29T08:20:10.088Z,14.80
2019-04-29T08:22:36.919Z,14.80
2019-04-29T08:25:06.512Z,14.90
2019-04-29T08:27:40.754Z,14.90
2019-04-29T08:30:06.682Z,14.90
2019-04-29T08:32:36.387Z,15.00
2019-04-29T08:35:04.928Z,15.00
2019-04-29T08:37:31.858Z,15.00
2019-04-29T08:40:14.793Z,15.10
2019-04-29T08:42:32.040Z,15.20
2019-04-29T08:45:01.664Z,15.20
2019-04-29T08:47:31.818Z,15.30
2019-04-29T08:49:59.046Z,15.30
2019-04-29T08:52:26.178Z,15.40
2019-04-29T08:54:55.331Z,15.40
2019-04-29T08:57:22.052Z,15.50
2019-04-29T08:59:49.653Z,15.00
2019-04-29T09:02:16.435Z,15.60
2019-04-29T09:04:53.394Z,15.60
2019-04-29T09:07:13.212Z,15.60
2019-04-29T09:09:40.780Z,15.70
2019-04-29T09:12:07.605Z,15.80
2019-04-29T09:14:34.446Z,15.80
2019-04-29T09:17:04.630Z,15.90
2019-04-29T09:19:30.044Z,15.90
2019-04-29T09:21:58.698Z,15.90
2019-04-29T09:24:25.513Z,16.00
2019-04-29T09:27:09.699Z,16.10
2019-04-29T09:29:36.340Z,16.10
2019-04-29T09:32:04.923Z,16.20
2019-04-29T09:34:31.841Z,16.20
2019-04-29T09:36:58.668Z,16.20
2019-04-29T09:39:25.488Z,16.30
2019-04-29T09:41:52.281Z,16.30
2019-04-29T09:44:24.922Z,16.40
2019-04-29T09:46:52.098Z,16.40
2019-04-29T09:49:19.331Z,16.50
2019-04-29T09:51:46.120Z,16.50
2019-04-29T09:54:14.699Z,16.60
2019-04-29T09:56:41.645Z,16.60
2019-04-29T09:59:22.329Z,16.70
2019-04-29T10:01:54.945Z,16.70
2019-04-29T10:04:24.366Z,16.80
2019-04-29T10:06:53.060Z,16.90
2019-04-29T10:09:20.486Z,16.90
2019-04-29T10:11:47.600Z,17.00
2019-04-29T10:14:14.934Z,17.00
2019-04-29T10:16:52.180Z,17.10
2019-04-29T10:19:32.787Z,17.10
2019-04-29T10:21:59.974Z,17.20
2019-04-29T10:24:27.083Z,17.20
2019-04-29T10:26:53.936Z,17.30
2019-04-29T10:29:25.629Z,17.30
2019-04-29T10:31:51.306Z,17.40
2019-04-29T10:34:18.792Z,17.50
2019-04-29T10:36:46.131Z,17.50
2019-04-29T10:39:27.608Z,17.60
2019-04-29T10:41:55.552Z,17.70
2019-04-29T10:44:26.928Z,17.80
2019-04-29T10:46:55.658Z,17.80
2019-04-29T10:49:27.468Z,17.90
2019-04-29T10:51:58.003Z,17.90
2019-04-29T10:54:24.800Z,18.10
2019-04-29T10:56:51.883Z,18.20
2019-04-29T10:59:18.672Z,18.30
2019-04-29T11:02:20.376Z,18.30
2019-04-29T11:04:49.596Z,18.40
2019-04-29T11:07:31.619Z,18.50
2019-04-29T11:10:08.051Z,18.60
2019-04-29T11:12:35.163Z,18.60
2019-04-29T11:15:04.965Z,18.70
2019-04-29T11:17:34.885Z,18.70
2019-04-29T11:20:00.856Z,18.80
2019-04-29T11:22:29.454Z,18.90
2019-04-29T11:25:05.268Z,18.90
2019-04-29T11:27:42.439Z,19.00
2019-04-29T11:30:12.118Z,19.00
2019-04-29T11:32:40.758Z,19.10
2019-04-29T11:35:12.651Z,19.10
2019-04-29T11:37:39.895Z,19.20
2019-04-29T11:40:07.835Z,19.30
2019-04-29T11:42:36.494Z,19.40
2019-04-29T11:45:07.977Z,19.40
2019-04-29T11:47:35.078Z,19.50
2019-04-29T11:50:07.658Z,19.70
2019-04-29T11:52:33.232Z,19.80
2019-04-29T11:55:00.257Z,19.90
2019-04-29T11:57:41.171Z,20.00
2019-04-29T12:00:10.566Z,20.10
2019-04-29T12:02:45.294Z,20.20
2019-04-29T12:05:11.183Z,20.30
2019-04-29T12:07:38.028Z,20.50
2019-04-29T12:10:06.791Z,20.60
2019-04-29T12:12:35.122Z,20.80
2019-04-29T12:15:09.084Z,20.90
2019-04-29T12:17:36.208Z,21.10
2019-04-29T12:20:21.303Z,21.20
2019-04-29T12:22:49.029Z,21.40
2019-04-29T12:25:16.119Z,21.50
2019-04-29T12:27:43.209Z,21.70
2019-04-29T12:30:12.493Z,21.80
2019-04-29T12:32:44.117Z,21.80
2019-04-29T12:35:16.705Z,22.00
2019-04-29T12:37:49.896Z,22.00
2019-04-29T12:40:35.790Z,22.10
2019-04-29T12:43:16.226Z,22.30
2019-04-29T12:45:45.155Z,22.30
2019-04-29T12:48:23.943Z,22.40
2019-04-29T12:50:41.010Z,22.50
2019-04-29T12:53:07.965Z,22.50
2019-04-29T12:55:44.926Z,22.60
2019-04-29T12:58:05.810Z,22.70
2019-04-29T13:00:46.938Z,22.80
2019-04-29T13:03:07.873Z,22.90
2019-04-29T13:05:58.433Z,22.90
2019-04-29T13:08:25.659Z,23.00
2019-04-29T13:10:54.260Z,23.00
2019-04-29T13:13:22.118Z,23.10
2019-04-29T13:15:55.192Z,23.10
2019-04-29T13:18:26.701Z,23.20
2019-04-29T13:20:53.830Z,23.30
2019-04-29T13:23:33.283Z,23.40
2019-04-29T13:25:50.941Z,23.40
2019-04-29T13:28:29.515Z,23.50
2019-04-29T13:30:51.426Z,23.50
2019-04-29T13:33:16.971Z,23.50
2019-04-29T13:35:48.329Z,23.60
2019-04-29T13:38:13.188Z,23.60
2019-04-29T13:40:40.232Z,23.60
2019-04-29T13:43:07.149Z,23.70
2019-04-29T13:45:41.579Z,23.80
2019-04-29T13:48:27.311Z,23.80
2019-04-29T13:51:04.903Z,23.90
2019-04-29T13:53:32.101Z,23.90
2019-04-29T13:56:11.539Z,23.90
2019-04-29T13:58:29.331Z,23.90
2019-04-29T14:01:22.504Z,24.00
2019-04-29T14:03:47.104Z,24.00
2019-04-29T14:06:14.370Z,24.10
2019-04-29T14:08:42.655Z,24.10
2019-04-29T14:11:09.512Z,24.20
2019-04-29T14:13:38.981Z,24.20
2019-04-29T14:16:07.664Z,24.20
2019-04-29T14:18:35.063Z,24.30
2019-04-29T14:21:02.304Z,24.30
2019-04-29T14:23:28.989Z,24.40
2019-04-29T14:25:55.810Z,24.50
2019-04-29T14:28:22.864Z,24.50
2019-04-29T14:30:49.737Z,24.60
2019-04-29T14:33:19.315Z,24.60
2019-04-29T14:35:52.056Z,24.70
2019-04-29T14:38:18.857Z,24.60
2019-04-29T14:40:46.152Z,24.60
2019-04-29T14:43:32.239Z,24.70
2019-04-29T14:46:16.198Z,24.70
2019-04-29T14:48:48.556Z,24.60
2019-04-29T14:51:15.458Z,24.60
2019-04-29T14:53:55.127Z,24.70
2019-04-29T14:56:11.163Z,24.60
2019-04-29T14:58:37.989Z,24.70
2019-04-29T15:01:08.330Z,24.70
2019-04-29T15:03:53.697Z,24.70
2019-04-29T15:06:20.772Z,24.70
2019-04-29T15:08:47.791Z,24.60
2019-04-29T15:11:14.973Z,24.60
2019-04-29T15:13:43.138Z,24.60
2019-04-29T15:16:29.560Z,24.50
2019-04-29T15:18:58.295Z,24.50
2019-04-29T15:21:32.799Z,24.50
2019-04-29T15:23:57.001Z,24.40
2019-04-29T15:26:23.804Z,24.30
2019-04-29T15:28:50.739Z,24.40
2019-04-29T15:31:23.858Z,24.40
2019-04-29T15:33:51.158Z,24.30
2019-04-29T15:36:18.001Z,24.40
2019-04-29T15:38:47.223Z,24.40
2019-04-29T15:41:13.980Z,24.30
2019-04-29T15:43:47.341Z,24.40
2019-04-29T15:46:11.432Z,24.40
2019-04-29T15:48:38.435Z,24.30
2019-04-29T15:51:09.291Z,24.40
2019-04-29T15:53:37.759Z,24.40
2019-04-29T15:56:08.590Z,24.40
2019-04-29T15:58:32.665Z,24.50
2019-04-29T16:01:12.998Z,24.40
2019-04-29T16:03:28.393Z,24.50
2019-04-29T16:06:19.742Z,24.50
2019-04-29T16:08:33.637Z,24.50
2019-04-29T16:11:18.608Z,24.50
2019-04-29T16:13:48.272Z,24.50
2019-04-29T16:16:14.391Z,24.70
2019-04-29T16:18:41.187Z,24.90
2019-04-29T16:21:08.604Z,25.10
2019-04-29T16:23:38.720Z,25.40
2019-04-29T16:26:04.205Z,25.80
2019-04-29T16:28:36.542Z,26.00
2019-04-29T16:31:05.191Z,26.30
2019-04-29T16:33:28.597Z,26.30
2019-04-29T16:35:57.586Z,26.50
2019-04-29T16:38:24.140Z,26.50
2019-04-29T16:41:02.008Z,26.50
2019-04-29T16:43:33.630Z,26.50
2019-04-29T16:46:02.429Z,26.60
2019-04-29T16:48:29.553Z,26.70
2019-04-29T16:50:56.386Z,26.80
2019-04-29T16:53:23.175Z,26.80
2019-04-29T16:55:50.331Z,27.00
2019-04-29T16:58:18.336Z,26.80
2019-04-29T17:03:15.076Z,26.50
2019-04-29T17:05:41.895Z,26.30
2019-04-29T17:08:09.486Z,26.00
2019-04-29T17:10:51.054Z,25.70
2019-04-29T17:13:23.435Z,25.60
2019-04-29T17:15:52.253Z,25.60
2019-04-29T17:18:15.484Z,25.70
2019-04-29T17:20:42.859Z,25.80
2019-04-29T17:23:09.745Z,25.80
2019-04-29T17:25:37.394Z,25.90
2019-04-29T17:28:11.924Z,25.80
2019-04-29T17:31:11.394Z,25.90
2019-04-29T17:33:49.705Z,26.00
2019-04-29T17:35:15.989Z,26.70
2019-04-29T17:36:11.538Z,26.00
2019-04-29T17:38:38.330Z,26.00
2019-04-29T17:41:05.187Z,26.00
2019-04-29T17:43:42.953Z,26.10
2019-04-29T17:46:22.289Z,26.20
2019-04-29T17:48:53.225Z,26.20
2019-04-29T17:51:18.926Z,26.40
2019-04-29T17:53:48.192Z,26.40
2019-04-29T17:56:35.095Z,26.50
2019-04-29T17:59:03.855Z,26.50
2019-04-29T18:01:49.416Z,26.50
2019-04-29T18:04:25.633Z,26.30
2019-04-29T18:07:08.337Z,26.30
2019-04-29T18:09:32.497Z,26.10
2019-04-29T18:12:01.216Z,25.80
2019-04-29T18:14:36.627Z,25.50
2019-04-29T18:16:58.131Z,25.30
2019-04-29T18:19:26.861Z,25.30
2019-04-29T18:21:59.459Z,25.00
2019-04-29T18:24:45.238Z,24.80
2019-04-29T18:27:17.060Z,24.60
2019-04-29T18:29:44.229Z,24.50
2019-04-29T18:32:12.905Z,24.40
2019-04-29T18:34:39.922Z,24.10
2019-04-29T18:37:06.960Z,23.90
2019-04-29T18:39:34.043Z,23.60
2019-04-29T18:42:03.164Z,23.40
2019-04-29T18:44:30.568Z,23.10
2019-04-29T18:46:57.586Z,23.00
2019-04-29T18:49:25.827Z,22.90
2019-04-29T18:51:52.971Z,22.90
2019-04-29T18:54:19.769Z,22.70
2019-04-29T18:56:46.821Z,22.50
2019-04-29T18:59:18.212Z,22.40
2019-04-29T19:01:44.898Z,22.30
2019-04-29T19:04:18.952Z,22.20
2019-04-29T19:06:45.440Z,22.20
2019-04-29T19:09:19.832Z,22.20
2019-04-29T19:11:42.420Z,21.80
2019-04-29T19:14:09.305Z,22.10
2019-04-29T19:16:39.283Z,22.00
2019-04-29T19:19:05.549Z,21.80
2019-04-29T19:21:33.710Z,21.70
2019-04-29T19:24:00.821Z,21.60
2019-04-29T19:26:28.043Z,21.50
2019-04-29T19:28:56.414Z,21.30
2019-04-29T19:31:25.198Z,21.30
2019-04-29T19:33:52.530Z,21.20
2019-04-29T19:36:21.740Z,21.10
2019-04-29T19:38:48.707Z,21.00
2019-04-29T19:41:16.631Z,21.00
2019-04-29T19:43:48.386Z,20.90
2019-04-29T19:46:22.656Z,20.80
2019-04-29T19:48:42.830Z,20.60
2019-04-29T19:51:17.405Z,20.50
2019-04-29T19:53:42.526Z,20.50
2019-04-29T19:56:07.693Z,20.40
2019-04-29T19:58:35.642Z,20.40
2019-04-29T20:01:11.852Z,20.40
2019-04-29T20:03:37.575Z,20.30
2019-04-29T20:06:08.943Z,20.30
2019-04-29T20:08:52.622Z,20.10
2019-04-29T20:11:13.757Z,20.10
2019-04-29T20:13:34.474Z,20.10
2019-04-29T20:16:12.781Z,20.00
2019-04-29T20:19:00.914Z,20.00
2019-04-29T20:21:29.315Z,20.00
2019-04-29T20:23:57.132Z,19.90
2019-04-29T20:26:29.571Z,19.90
2019-04-29T20:28:55.656Z,19.90
2019-04-29T20:31:22.922Z,19.90
2019-04-29T20:33:50.301Z,19.90
2019-04-29T20:36:37.337Z,19.90
2019-04-29T20:38:47.366Z,19.90
2019-04-29T20:41:18.107Z,19.90
2019-04-29T20:43:43.391Z,19.80
2019-04-29T20:46:10.750Z,19.80
2019-04-29T20:48:38.019Z,19.70
2019-04-29T20:51:11.453Z,19.70
2019-04-29T20:53:39.843Z,19.60
2019-04-29T20:56:12.337Z,19.60
2019-04-29T20:58:35.790Z,19.50
2019-04-29T21:01:10.709Z,19.40
2019-04-29T21:03:33.154Z,19.30
2019-04-29T21:06:02.713Z,19.20
2019-04-29T21:08:29.516Z,19.00
2019-04-29T21:10:58.267Z,19.00
2019-04-29T21:13:43.682Z,18.80
2019-04-29T21:16:22.798Z,18.70
2019-04-29T21:18:54.260Z,18.50
2019-04-29T21:21:21.613Z,18.40
2019-04-29T21:23:48.732Z,18.40
2019-04-29T21:26:15.990Z,18.40
2019-04-29T21:28:45.316Z,18.40
2019-04-29T21:31:18.566Z,18.40
2019-04-29T21:33:42.001Z,18.40
2019-04-29T21:36:16.416Z,18.40
2019-04-29T21:38:48.659Z,18.30
2019-04-29T21:41:25.518Z,18.20
2019-04-29T21:43:55.682Z,18.20
2019-04-29T21:46:25.782Z,18.10
2019-04-29T21:48:51.556Z,18.20
2019-04-29T21:51:18.594Z,18.20
2019-04-29T21:53:45.903Z,18.10
2019-04-29T21:56:12.975Z,18.20
2019-04-29T21:58:40.152Z,18.10
2019-04-29T22:01:07.646Z,18.10
2019-04-29T22:03:34.975Z,18.00
2019-04-29T22:06:01.964Z,18.00
2019-04-29T22:08:30.079Z,17.90
2019-04-29T22:11:04.384Z,17.90
2019-04-29T22:13:30.622Z,17.80
2019-04-29T22:15:55.738Z,17.70
2019-04-29T22:18:22.621Z,17.70
2019-04-29T22:20:49.440Z,17.70
2019-04-29T22:23:17.390Z,17.80
2019-04-29T22:25:45.746Z,17.90
2019-04-29T22:28:15.863Z,17.80
2019-04-29T22:30:42.401Z,17.90
2019-04-29T22:33:09.160Z,18.00
2019-04-29T22:35:37.269Z,18.00
2019-04-29T22:38:07.704Z,17.90
2019-04-29T22:40:40.752Z,17.90
2019-04-29T22:43:10.129Z,17.90
2019-04-29T22:45:35.652Z,17.90
2019-04-29T22:48:14.224Z,17.90
2019-04-29T22:50:33.710Z,17.90
2019-04-29T22:53:05.191Z,17.90
2019-04-29T22:55:30.795Z,18.00
2019-04-29T22:58:00.799Z,18.00
2019-04-29T23:00:32.674Z,18.00
2019-04-29T23:03:02.368Z,17.90
2019-04-29T23:05:29.148Z,18.00
2019-04-29T23:07:57.044Z,17.90
2019-04-29T23:10:27.886Z,17.70
2019-04-29T23:12:57.244Z,17.60
2019-04-29T23:15:23.808Z,17.50
2019-04-29T23:17:51.081Z,17.60
2019-04-29T23:20:20.745Z,17.60
2019-04-29T23:22:52.636Z,17.60
2019-04-29T23:25:25.995Z,17.50
2019-04-29T23:27:52.556Z,17.60
2019-04-29T23:30:20.593Z,17.60
2019-04-29T23:32:47.728Z,17.60
2019-04-29T23:35:14.970Z,17.60
2019-04-29T23:37:42.447Z,17.50
2019-04-29T23:40:09.894Z,17.50
2019-04-29T23:42:37.042Z,17.50
2019-04-29T23:45:05.661Z,17.30
2019-04-29T23:47:32.576Z,17.10
2019-04-29T23:49:59.618Z,17.00
2019-04-29T23:52:26.951Z,16.80
2019-04-29T23:54:54.209Z,16.70
2019-04-29T23:57:24.837Z,16.70
